New Philadelphia, OH

6:46 PM EDT on July 23, 2017 (GMT -0400)
Steele Hill | | Change Station

Elev 942 ft 40.48 °N, 81.48 °W | Updated 1 second ago

Heavy Thunderstorms and Rain
Heavy Thunderstorm Rain Fog
72.2 °F
Feels Like 72.2 °F
N
4.0
Wind Variable Wind from West
Gusts 13.0 mph

Today
High -- | Low -- °F
--% Chance of Precip.
Yesterday
High -- | Low -- °F
Precip. -- in
Pressure 29.78 in
Visibility 0.2 miles
Clouds
Dew Point 70 °F
Humidity 94%
Rainfall 0.89 in
Snow Depth Not available.
6:15 AM 8:49 PM
New Moon, 0% visible
SPECI KPHD 232241Z AUTO 20009G22KT 1/4SM +TSRA FG 22/21 A2978 RMK AO2 LTG DSNT ALQDS RAB06B34 TSB08 P0046 T02170211 $
Pressure 29.78 in
Visibility 0.2 miles
Clouds
Dew Point 70 °F
Humidity 94%
Rainfall 0.89 in
Snow Depth Not available.
6:15 AM 8:49 PM
New Moon, 0% visible
SPECI KPHD 232241Z AUTO 20009G22KT 1/4SM +TSRA FG 22/21 A2978 RMK AO2 LTG DSNT ALQDS RAB06B34 TSB08 P0046 T02170211 $

Get Severe Weather Alerts

Thanks for signing up!

Be on the lookout for a verification email in your inbox.

You'll start receiving the daily forecast at 6 AM.

×

10-Day Weather Forecast

Almanac

Astronomy

Jul. 23, 2017 Rise Set
Actual Time
Civil Twilight
Nautical Twilight
Astronomical Twilight
Moon
Length of Visible Light
Length of Day
Tomorrow will be .
, % of the Moon is Illuminated

Today's Extremes

State Highs State Lows

Community

WunderPhotos

Category 6

Welcome to Category 6. This is the collective home for Weather Underground's featured writeups by Dr. Jeff Masters (right), Bob Henson (left), Chris Burt, and other regular contributors.

Nearby

Air Quality

  Air Quality AQ Index Pollutant
Not available.

Snow Depth

Station Depth Elevation

Earthquake Activity

City Distance Mag. Time & Date
Minimum magnitude displayed is 2.5.

Coastal Water Temperatures

Place Temperature

Stations

Nearby Weather Stations

Station Location Temp. Windchill Dew Point Humidity Wind Precip. Elev Updated Type
                   

Watches & Warnings

There are currently no watches in effect.